Terminal Aerodrome Forecast
Issued by NWS Huntsville, AL

Current Version | Previous Version | Text Only | Print | Product List | Glossary On
Versions: 1 2 3 4 5 6 7 8 9 10 11 12 13 14 15 16 17 18 19 20 21 22 23 24 25 26 27
673
FTUS44 KHUN 131720
TAFMSL
TAF
KMSL 131720Z 1318/1418 02008KT P6SM SCT120 SCT250
     FM140000 07005KT P6SM BKN120
     FM141400 14007KT P6SM BKN100=

USA.gov is the U.S. government's official web portal to all federal, state and local government web resources and services.